sensor_id;sensor_type;location;lat;lon;timestamp;pressure;altitude;pressure_sealevel;temperature;humidity
11440;BME280;5776;51.814;4.510;2023-07-13T00:00:35;101434.44;;;18.24;97.79
11440;BME280;5776;51.814;4.510;2023-07-13T00:03:02;101436.84;;;18.25;98.05
11440;BME280;5776;51.814;4.510;2023-07-13T00:05:28;101434.44;;;18.24;97.92
11440;BME280;5776;51.814;4.510;2023-07-13T00:07:54;101429.75;;;18.24;98.35
11440;BME280;5776;51.814;4.510;2023-07-13T00:10:21;101422.63;;;18.23;98.13
11440;BME280;5776;51.814;4.510;2023-07-13T00:12:47;101429.56;;;18.21;98.56
11440;BME280;5776;51.814;4.510;2023-07-13T00:15:23;101437.81;;;18.21;98.16
11440;BME280;5776;51.814;4.510;2023-07-13T00:17:51;101435.06;;;18.21;99.04
11440;BME280;5776;51.814;4.510;2023-07-13T00:20:18;101437.34;;;18.19;99.25
11440;BME280;5776;51.814;4.510;2023-07-13T00:22:48;101438.47;;;18.18;99.05
11440;BME280;5776;51.814;4.510;2023-07-13T00:25:14;101442.69;;;18.15;98.95
11440;BME280;5776;51.814;4.510;2023-07-13T00:27:43;101438.81;;;18.16;98.92
11440;BME280;5776;51.814;4.510;2023-07-13T00:30:10;101436.69;;;18.13;99.94
11440;BME280;5776;51.814;4.510;2023-07-13T00:32:37;101438.63;;;18.12;99.30
11440;BME280;5776;51.814;4.510;2023-07-13T00:35:03;101437.03;;;18.11;98.71
11440;BME280;5776;51.814;4.510;2023-07-13T00:37:30;101437.03;;;18.11;98.92
11440;BME280;5776;51.814;4.510;2023-07-13T00:39:57;101428.28;;;18.09;99.86
11440;BME280;5776;51.814;4.510;2023-07-13T00:42:23;101431.34;;;18.08;98.79
11440;BME280;5776;51.814;4.510;2023-07-13T00:46:08;101429.75;;;18.07;99.51
11440;BME280;5776;51.814;4.510;2023-07-13T00:47:55;101439.78;;;18.03;100.00
11440;BME280;5776;51.814;4.510;2023-07-13T00:50:23;101440.44;;;18.00;99.69
11440;BME280;5776;51.814;4.510;2023-07-13T00:52:52;101436.06;;;17.99;100.00
11440;BME280;5776;51.814;4.510;2023-07-13T00:55:20;101432.34;;;17.95;100.00
11440;BME280;5776;51.814;4.510;2023-07-13T00:57:47;101434.59;;;17.92;100.00
11440;BME280;5776;51.814;4.510;2023-07-13T01:00:13;101438.00;;;17.89;100.00
11440;BME280;5776;51.814;4.510;2023-07-13T01:02:43;101438.66;;;17.86;100.00
11440;BME280;5776;51.814;4.510;2023-07-13T01:05:12;101438.16;;;17.84;100.00
11440;BME280;5776;51.814;4.510;2023-07-13T01:07:40;101442.06;;;17.83;100.00
11440;BME280;5776;51.814;4.510;2023-07-13T01:10:07;101439.13;;;17.80;100.00
11440;BME280;5776;51.814;4.510;2023-07-13T01:12:34;101448.78;;;17.77;100.00
11440;BME280;5776;51.814;4.510;2023-07-13T01:15:01;101446.69;;;17.74;100.00
11440;BME280;5776;51.814;4.510;2023-07-13T01:17:28;101453.31;;;17.73;100.00
11440;BME280;5776;51.814;4.510;2023-07-13T01:19:54;101455.59;;;17.71;100.00
11440;BME280;5776;51.814;4.510;2023-07-13T01:22:21;101449.59;;;17.69;100.00
11440;BME280;5776;51.814;4.510;2023-07-13T01:24:53;101455.41;;;17.67;100.00
11440;BME280;5776;51.814;4.510;2023-07-13T01:27:24;101454.09;;;17.65;100.00
11440;BME280;5776;51.814;4.510;2023-07-13T01:29:53;101456.34;;;17.63;100.00
11440;BME280;5776;51.814;4.510;2023-07-13T01:32:27;101457.50;;;17.62;100.00
11440;BME280;5776;51.814;4.510;2023-07-13T01:34:53;101460.56;;;17.60;100.00
11440;BME280;5776;51.814;4.510;2023-07-13T01:37:24;101456.50;;;17.58;100.00
11440;BME280;5776;51.814;4.510;2023-07-13T01:39:50;101450.56;;;17.56;100.00
11440;BME280;5776;51.814;4.510;2023-07-13T01:42:17;101464.28;;;17.56;100.00
11440;BME280;5776;51.814;4.510;2023-07-13T01:44:43;101459.41;;;17.53;100.00
11440;BME280;5776;51.814;4.510;2023-07-13T01:47:09;101463.00;;;17.53;100.00
11440;BME280;5776;51.814;4.510;2023-07-13T01:49:35;101461.69;;;17.51;100.00
11440;BME280;5776;51.814;4.510;2023-07-13T01:52:03;101472.97;;;17.49;100.00
11440;BME280;5776;51.814;4.510;2023-07-13T01:54:29;101478.78;;;17.47;100.00
11440;BME280;5776;51.814;4.510;2023-07-13T01:56:54;101470.03;;;17.45;100.00
11440;BME280;5776;51.814;4.510;2023-07-13T01:59:20;101464.91;;;17.44;100.00
11440;BME280;5776;51.814;4.510;2023-07-13T02:01:46;101473.44;;;17.42;100.00
11440;BME280;5776;51.814;4.510;2023-07-13T02:04:12;101478.94;;;17.42;100.00
11440;BME280;5776;51.814;4.510;2023-07-13T02:06:38;101465.84;;;17.39;100.00
11440;BME280;5776;51.814;4.510;2023-07-13T02:09:04;101471.34;;;17.39;100.00
11440;BME280;5776;51.814;4.510;2023-07-13T02:11:30;101471.66;;;17.38;100.00
11440;BME280;5776;51.814;4.510;2023-07-13T02:14:02;101479.06;;;17.37;100.00
11440;BME280;5776;51.814;4.510;2023-07-13T02:16:29;101471.47;;;17.34;100.00
11440;BME280;5776;51.814;4.510;2023-07-13T02:18:55;101464.06;;;17.35;100.00
11440;BME280;5776;51.814;4.510;2023-07-13T02:21:22;101464.38;;;17.33;100.00
11440;BME280;5776;51.814;4.510;2023-07-13T02:23:52;101469.25;;;17.36;100.00
11440;BME280;5776;51.814;4.510;2023-07-13T02:26:18;101462.09;;;17.35;100.00
11440;BME280;5776;51.814;4.510;2023-07-13T02:28:44;101474.72;;;17.36;100.00
11440;BME280;5776;51.814;4.510;2023-07-13T02:31:13;101468.91;;;17.38;100.00
11440;BME280;5776;51.814;4.510;2023-07-13T02:33:40;101475.84;;;17.35;100.00
11440;BME280;5776;51.814;4.510;2023-07-13T02:36:06;101467.94;;;17.34;100.00
11440;BME280;5776;51.814;4.510;2023-07-13T02:38:33;101478.13;;;17.33;100.00
11440;BME280;5776;51.814;4.510;2023-07-13T02:41:00;101469.38;;;17.31;100.00
11440;BME280;5776;51.814;4.510;2023-07-13T02:43:27;101474.88;;;17.31;100.00
11440;BME280;5776;51.814;4.510;2023-07-13T02:45:53;101472.44;;;17.30;100.00
11440;BME280;5776;51.814;4.510;2023-07-13T02:48:19;101470.84;;;17.28;100.00
11440;BME280;5776;51.814;4.510;2023-07-13T02:50:45;101475.19;;;17.30;100.00
11440;BME280;5776;51.814;4.510;2023-07-13T02:53:10;101476.63;;;17.27;100.00
11440;BME280;5776;51.814;4.510;2023-07-13T02:55:37;101469.84;;;17.24;100.00
11440;BME280;5776;51.814;4.510;2023-07-13T02:58:03;101472.91;;;17.23;100.00
11440;BME280;5776;51.814;4.510;2023-07-13T03:00:29;101472.91;;;17.23;100.00
11440;BME280;5776;51.814;4.510;2023-07-13T03:02:55;101475.16;;;17.21;100.00
11440;BME280;5776;51.814;4.510;2023-07-13T03:05:23;101468.03;;;17.20;100.00
11440;BME280;5776;51.814;4.510;2023-07-13T03:07:51;101473.53;;;17.20;100.00
11440;BME280;5776;51.814;4.510;2023-07-13T03:10:17;101468.69;;;17.17;100.00
11440;BME280;5776;51.814;4.510;2023-07-13T03:12:43;101468.97;;;17.15;100.00
11440;BME280;5776;51.814;4.510;2023-07-13T03:15:08;101473.16;;;17.13;100.00
11440;BME280;5776;51.814;4.510;2023-07-13T03:17:35;101479.16;;;17.15;100.00
11440;BME280;5776;51.814;4.510;2023-07-13T03:20:01;101473.16;;;17.13;100.00
11440;BME280;5776;51.814;4.510;2023-07-13T03:22:27;101477.84;;;17.12;100.00
11440;BME280;5776;51.814;4.510;2023-07-13T03:24:55;101477.06;;;17.12;100.00
11440;BME280;5776;51.814;4.510;2023-07-13T03:27:20;101482.03;;;17.10;100.00
11440;BME280;5776;51.814;4.510;2023-07-13T03:29:46;101482.53;;;17.12;100.00
11440;BME280;5776;51.814;4.510;2023-07-13T03:32:12;101471.88;;;17.10;100.00
11440;BME280;5776;51.814;4.510;2023-07-13T03:34:38;101478.50;;;17.09;100.00
11440;BME280;5776;51.814;4.510;2023-07-13T03:37:04;101474.94;;;17.09;100.00
11440;BME280;5776;51.814;4.510;2023-07-13T03:39:30;101485.44;;;17.06;100.00
11440;BME280;5776;51.814;4.510;2023-07-13T03:41:56;101480.75;;;17.07;100.00
11440;BME280;5776;51.814;4.510;2023-07-13T03:44:22;101483.50;;;17.07;100.00
11440;BME280;5776;51.814;4.510;2023-07-13T03:46:48;101487.03;;;17.08;100.00
11440;BME280;5776;51.814;4.510;2023-07-13T03:49:14;101492.53;;;17.08;100.00
11440;BME280;5776;51.814;4.510;2023-07-13T03:51:40;101491.72;;;17.07;100.00
11440;BME280;5776;51.814;4.510;2023-07-13T03:54:06;101506.56;;;17.06;100.00
11440;BME280;5776;51.814;4.510;2023-07-13T03:56:32;101495.91;;;17.04;100.00
11440;BME280;5776;51.814;4.510;2023-07-13T03:58:58;101495.91;;;17.04;100.00
11440;BME280;5776;51.814;4.510;2023-07-13T04:01:24;101507.53;;;17.01;100.00
11440;BME280;5776;51.814;4.510;2023-07-13T04:03:51;101499.28;;;17.01;100.00
11440;BME280;5776;51.814;4.510;2023-07-13T04:06:20;101503.16;;;17.00;100.00
11440;BME280;5776;51.814;4.510;2023-07-13T04:08:49;101505.09;;;17.00;100.00
11440;BME280;5776;51.814;4.510;2023-07-13T04:11:17;101504.28;;;16.99;100.00
11440;BME280;5776;51.814;4.510;2023-07-13T04:13:43;101508.47;;;16.97;100.00
11440;BME280;5776;51.814;4.510;2023-07-13T04:16:09;101509.25;;;16.97;100.00
11440;BME280;5776;51.814;4.510;2023-07-13T04:18:35;101513.94;;;16.97;100.00
11440;BME280;5776;51.814;4.510;2023-07-13T04:21:01;101514.75;;;16.97;100.00
11440;BME280;5776;51.814;4.510;2023-07-13T04:23:27;101513.94;;;16.97;100.00
11440;BME280;5776;51.814;4.510;2023-07-13T04:25:53;101517.00;;;16.95;100.00
11440;BME280;5776;51.814;4.510;2023-07-13T04:28:23;101518.63;;;16.96;100.00
11440;BME280;5776;51.814;4.510;2023-07-13T04:30:49;101515.09;;;16.96;100.00
11440;BME280;5776;51.814;4.510;2023-07-13T04:33:16;101515.88;;;16.96;100.00
11440;BME280;5776;51.814;4.510;2023-07-13T04:35:45;101527.97;;;16.95;100.00
11440;BME280;5776;51.814;4.510;2023-07-13T04:38:12;101524.63;;;16.98;100.00
11440;BME280;5776;51.814;4.510;2023-07-13T04:40:38;101523.47;;;16.99;100.00
11440;BME280;5776;51.814;4.510;2023-07-13T04:43:04;101527.03;;;17.00;100.00
11440;BME280;5776;51.814;4.510;2023-07-13T04:45:30;101532.22;;;17.01;100.00
11440;BME280;5776;51.814;4.510;2023-07-13T04:47:57;101529.78;;;17.00;100.00
11440;BME280;5776;51.814;4.510;2023-07-13T04:50:23;101533.34;;;17.00;100.00
11440;BME280;5776;51.814;4.510;2023-07-13T04:52:50;101533.81;;;17.02;100.00
11440;BME280;5776;51.814;4.510;2023-07-13T04:55:16;101536.75;;;17.06;100.00
11440;BME280;5776;51.814;4.510;2023-07-13T04:57:42;101533.22;;;17.05;100.00
11440;BME280;5776;51.814;4.510;2023-07-13T05:00:08;101541.44;;;17.05;100.00
11440;BME280;5776;51.814;4.510;2023-07-13T05:02:37;101538.38;;;17.07;100.00
11440;BME280;5776;51.814;4.510;2023-07-13T05:05:03;101544.19;;;17.05;100.00
11440;BME280;5776;51.814;4.510;2023-07-13T05:07:29;101541.91;;;17.08;100.00
11440;BME280;5776;51.814;4.510;2023-07-13T05:09:55;101548.25;;;17.08;100.00
11440;BME280;5776;51.814;4.510;2023-07-13T05:12:21;101554.19;;;17.10;100.00
11440;BME280;5776;51.814;4.510;2023-07-13T05:14:47;101548.41;;;17.12;100.00
11440;BME280;5776;51.814;4.510;2023-07-13T05:17:14;101552.28;;;17.11;100.00
11440;BME280;5776;51.814;4.510;2023-07-13T05:19:40;101549.22;;;17.12;100.00
11440;BME280;5776;51.814;4.510;2023-07-13T05:22:06;101550.84;;;17.13;100.00
11440;BME280;5776;51.814;4.510;2023-07-13T05:24:32;101540.69;;;17.14;100.00
11440;BME280;5776;51.814;4.510;2023-07-13T05:26:58;101550.84;;;17.13;100.00
11440;BME280;5776;51.814;4.510;2023-07-13T05:29:24;101555.50;;;17.13;100.00
11440;BME280;5776;51.814;4.510;2023-07-13T05:31:50;101557.94;;;17.14;100.00
11440;BME280;5776;51.814;4.510;2023-07-13T05:34:16;101560.38;;;17.16;100.00
11440;BME280;5776;51.814;4.510;2023-07-13T05:36:42;101559.56;;;17.15;100.00
11440;BME280;5776;51.814;4.510;2023-07-13T05:39:08;101563.59;;;17.18;100.00
11440;BME280;5776;51.814;4.510;2023-07-13T05:41:35;101574.59;;;17.18;100.00
11440;BME280;5776;51.814;4.510;2023-07-13T05:44:01;101573.13;;;17.20;100.00
11440;BME280;5776;51.814;4.510;2023-07-13T05:46:28;101570.09;;;17.22;100.00
11440;BME280;5776;51.814;4.510;2023-07-13T05:48:53;101585.13;;;17.24;100.00
11440;BME280;5776;51.814;4.510;2023-07-13T05:51:21;101585.31;;;17.28;100.00
11440;BME280;5776;51.814;4.510;2023-07-13T05:53:47;101578.69;;;17.29;100.00
11440;BME280;5776;51.814;4.510;2023-07-13T05:56:12;101579.00;;;17.27;100.00
11440;BME280;5776;51.814;4.510;2023-07-13T05:58:38;101587.72;;;17.30;100.00
11440;BME280;5776;51.814;4.510;2023-07-13T06:01:09;101585.78;;;17.30;100.00
11440;BME280;5776;51.814;4.510;2023-07-13T06:03:35;101592.41;;;17.29;100.00
11440;BME280;5776;51.814;4.510;2023-07-13T06:06:08;101591.63;;;17.28;100.00
11440;BME280;5776;51.814;4.510;2023-07-13T06:08:35;101592.25;;;17.25;100.00
11440;BME280;5776;51.814;4.510;2023-07-13T06:11:05;101597.41;;;17.27;100.00
11440;BME280;5776;51.814;4.510;2023-07-13T06:13:31;101586.75;;;17.25;100.00
11440;BME280;5776;51.814;4.510;2023-07-13T06:15:56;101605.66;;;17.27;100.00
11440;BME280;5776;51.814;4.510;2023-07-13T06:18:22;101600.66;;;17.29;100.00
11440;BME280;5776;51.814;4.510;2023-07-13T06:20:48;101601.97;;;17.32;100.00
11440;BME280;5776;51.814;4.510;2023-07-13T06:23:14;101600.81;;;17.33;100.00
11440;BME280;5776;51.814;4.510;2023-07-13T06:25:40;101606.81;;;17.35;100.00
11440;BME280;5776;51.814;4.510;2023-07-13T06:28:06;101610.34;;;17.35;100.00
11440;BME280;5776;51.814;4.510;2023-07-13T06:30:31;101615.84;;;17.35;100.00
11440;BME280;5776;51.814;4.510;2023-07-13T06:32:57;101613.31;;;17.39;100.00
11440;BME280;5776;51.814;4.510;2023-07-13T06:35:23;101608.63;;;17.39;100.00
11440;BME280;5776;51.814;4.510;2023-07-13T06:37:49;101599.44;;;17.44;100.00
11440;BME280;5776;51.814;4.510;2023-07-13T06:40:15;101603.19;;;17.48;100.00
11440;BME280;5776;51.814;4.510;2023-07-13T06:42:44;101603.34;;;17.52;100.00
11440;BME280;5776;51.814;4.510;2023-07-13T06:45:10;101603.84;;;17.54;100.00
11440;BME280;5776;51.814;4.510;2023-07-13T06:47:36;101618.53;;;17.58;100.00
11440;BME280;5776;51.814;4.510;2023-07-13T06:50:02;101612.91;;;17.63;100.00
11440;BME280;5776;51.814;4.510;2023-07-13T06:52:27;101618.09;;;17.64;100.00
11440;BME280;5776;51.814;4.510;2023-07-13T06:54:53;101615.22;;;17.69;100.00
11440;BME280;5776;51.814;4.510;2023-07-13T06:57:19;101620.41;;;17.71;100.00
11440;BME280;5776;51.814;4.510;2023-07-13T06:59:45;101627.34;;;17.77;100.00
11440;BME280;5776;51.814;4.510;2023-07-13T07:02:11;101624.50;;;17.82;100.00
11440;BME280;5776;51.814;4.510;2023-07-13T07:04:37;101629.03;;;17.87;100.00
11440;BME280;5776;51.814;4.510;2023-07-13T07:07:03;101628.59;;;17.94;100.00
11440;BME280;5776;51.814;4.510;2023-07-13T07:09:29;101636.19;;;17.97;100.00
11440;BME280;5776;51.814;4.510;2023-07-13T07:11:58;101634.44;;;18.01;100.00
11440;BME280;5776;51.814;4.510;2023-07-13T07:14:23;101636.19;;;18.05;100.00
11440;BME280;5776;51.814;4.510;2023-07-13T07:16:50;101641.69;;;18.05;100.00
11440;BME280;5776;51.814;4.510;2023-07-13T07:19:16;101640.25;;;18.08;100.00
11440;BME280;5776;51.814;4.510;2023-07-13T07:21:42;101643.84;;;18.08;100.00
11440;BME280;5776;51.814;4.510;2023-07-13T07:24:08;101653.69;;;18.09;100.00
11440;BME280;5776;51.814;4.510;2023-07-13T07:26:34;101648.50;;;18.08;100.00
11440;BME280;5776;51.814;4.510;2023-07-13T07:29:00;101659.97;;;18.10;100.00
11440;BME280;5776;51.814;4.510;2023-07-13T07:31:25;101658.38;;;18.09;100.00
11440;BME280;5776;51.814;4.510;2023-07-13T07:33:51;101658.38;;;18.09;100.00
11440;BME280;5776;51.814;4.510;2023-07-13T07:36:17;101665.00;;;18.08;100.00
11440;BME280;5776;51.814;4.510;2023-07-13T07:38:43;101669.38;;;18.09;100.00
11440;BME280;5776;51.814;4.510;2023-07-13T07:41:09;101670.47;;;18.08;100.00
11440;BME280;5776;51.814;4.510;2023-07-13T07:43:36;101665.00;;;18.08;100.00
11440;BME280;5776;51.814;4.510;2023-07-13T07:46:02;101660.31;;;18.08;100.00
11440;BME280;5776;51.814;4.510;2023-07-13T07:48:29;101662.25;;;18.08;100.00
11440;BME280;5776;51.814;4.510;2023-07-13T07:50:55;101664.53;;;18.06;100.00
11440;BME280;5776;51.814;4.510;2023-07-13T07:53:20;101664.53;;;18.06;100.00
11440;BME280;5776;51.814;4.510;2023-07-13T07:55:47;101661.44;;;18.07;100.00
11440;BME280;5776;51.814;4.510;2023-07-13T07:58:13;101661.63;;;18.11;100.00
11440;BME280;5776;51.814;4.510;2023-07-13T08:00:39;101672.78;;;18.14;100.00
11440;BME280;5776;51.814;4.510;2023-07-13T08:03:06;101672.94;;;18.18;100.00
11440;BME280;5776;51.814;4.510;2023-07-13T08:05:35;101670.06;;;18.23;100.00
11440;BME280;5776;51.814;4.510;2023-07-13T08:08:01;101673.28;;;18.25;100.00
11440;BME280;5776;51.814;4.510;2023-07-13T08:10:26;101682.03;;;18.27;100.00
11440;BME280;5776;51.814;4.510;2023-07-13T08:12:52;101675.88;;;18.30;100.00
11440;BME280;5776;51.814;4.510;2023-07-13T08:15:18;101674.44;;;18.33;100.00
11440;BME280;5776;51.814;4.510;2023-07-13T08:17:47;101678.47;;;18.35;100.00
11440;BME280;5776;51.814;4.510;2023-07-13T08:20:13;101675.41;;;18.37;100.00
11440;BME280;5776;51.814;4.510;2023-07-13T08:22:39;101670.06;;;18.41;100.00
11440;BME280;5776;51.814;4.510;2023-07-13T08:25:06;101663.97;;;18.44;100.00
11440;BME280;5776;51.814;4.510;2023-07-13T08:27:32;101667.16;;;18.46;100.00
11440;BME280;5776;51.814;4.510;2023-07-13T08:29:58;101672.06;;;18.49;100.00
11440;BME280;5776;51.814;4.510;2023-07-13T08:32:24;101667.03;;;18.51;100.00
11440;BME280;5776;51.814;4.510;2023-07-13T08:34:50;101669.94;;;18.54;100.00
11440;BME280;5776;51.814;4.510;2023-07-13T08:37:18;101679.00;;;18.55;100.00
11440;BME280;5776;51.814;4.510;2023-07-13T08:39:45;101664.13;;;18.56;100.00
11440;BME280;5776;51.814;4.510;2023-07-13T08:42:39;101667.34;;;18.58;100.00
11440;BME280;5776;51.814;4.510;2023-07-13T08:47:42;101674.16;;;18.61;100.00
11440;BME280;5776;51.814;4.510;2023-07-13T08:50:14;101667.19;;;18.63;100.00
11440;BME280;5776;51.814;4.510;2023-07-13T08:52:41;101673.69;;;18.67;100.00
11440;BME280;5776;51.814;4.510;2023-07-13T08:55:26;101669.97;;;18.72;100.00
11440;BME280;5776;51.814;4.510;2023-07-13T08:58:00;101664.34;;;18.77;100.00
11440;BME280;5776;51.814;4.510;2023-07-13T09:00:36;101663.50;;;18.85;100.00
11440;BME280;5776;51.814;4.510;2023-07-13T09:03:05;101666.91;;;18.91;100.00
11440;BME280;5776;51.814;4.510;2023-07-13T09:05:40;101664.81;;;18.96;100.00
11440;BME280;5776;51.814;4.510;2023-07-13T09:14:33;101670.13;;;19.10;100.00
11440;BME280;5776;51.814;4.510;2023-07-13T09:17:08;101679.03;;;19.16;100.00
11440;BME280;5776;51.814;4.510;2023-07-13T09:19:36;101677.75;;;19.22;100.00
11440;BME280;5776;51.814;4.510;2023-07-13T09:22:05;101681.78;;;19.25;99.97
11440;BME280;5776;51.814;4.510;2023-07-13T09:24:49;101683.56;;;19.29;99.73
11440;BME280;5776;51.814;4.510;2023-07-13T09:27:27;101681.44;;;19.35;99.06
11440;BME280;5776;51.814;4.510;2023-07-13T09:30:45;101684.03;;;19.40;99.13
11440;BME280;5776;51.814;4.510;2023-07-13T09:32:51;101687.25;;;19.42;97.75
11440;BME280;5776;51.814;4.510;2023-07-13T09:35:25;101677.69;;;19.48;97.99
11440;BME280;5776;51.814;4.510;2023-07-13T09:37:57;101675.91;;;19.52;98.00
11440;BME280;5776;51.814;4.510;2023-07-13T09:40:29;101676.03;;;19.56;98.30
11440;BME280;5776;51.814;4.510;2023-07-13T09:43:01;101677.81;;;19.60;97.95
11440;BME280;5776;51.814;4.510;2023-07-13T09:45:32;101682.66;;;19.63;97.83
11440;BME280;5776;51.814;4.510;2023-07-13T09:48:11;101693.88;;;19.67;97.32
11440;BME280;5776;51.814;4.510;2023-07-13T09:50:38;101690.94;;;19.72;96.89
11440;BME280;5776;51.814;4.510;2023-07-13T09:53:11;101686.41;;;19.76;96.33
11440;BME280;5776;51.814;4.510;2023-07-13T09:55:38;101698.34;;;19.80;95.70
11440;BME280;5776;51.814;4.510;2023-07-13T09:58:13;101697.22;;;19.81;94.27
11440;BME280;5776;51.814;4.510;2023-07-13T10:00:41;101696.22;;;19.86;95.40
11440;BME280;5776;51.814;4.510;2023-07-13T10:03:21;101701.91;;;19.90;95.71
11440;BME280;5776;51.814;4.510;2023-07-13T10:05:50;101710.97;;;19.90;95.40
11440;BME280;5776;51.814;4.510;2023-07-13T10:08:18;101703.38;;;19.87;95.95
11440;BME280;5776;51.814;4.510;2023-07-13T10:10:45;101715.50;;;19.86;94.96
11440;BME280;5776;51.814;4.510;2023-07-13T10:15:51;101719.75;;;19.83;94.61
11440;BME280;5776;51.814;4.510;2023-07-13T10:18:19;101718.13;;;19.82;95.43
11440;BME280;5776;51.814;4.510;2023-07-13T10:20:45;101731.59;;;19.84;95.73
11440;BME280;5776;51.814;4.510;2023-07-13T10:23:15;101729.97;;;19.83;94.79
11440;BME280;5776;51.814;4.510;2023-07-13T10:25:46;101724.44;;;19.83;93.71
11440;BME280;5776;51.814;4.510;2023-07-13T10:30:52;101738.84;;;19.89;93.49
11440;BME280;5776;51.814;4.510;2023-07-13T10:33:20;101739.69;;;19.89;91.54
11440;BME280;5776;51.814;4.510;2023-07-13T10:35:47;101745.03;;;19.94;92.42
11440;BME280;5776;51.814;4.510;2023-07-13T10:38:19;101741.59;;;19.97;92.14
11440;BME280;5776;51.814;4.510;2023-07-13T10:41:11;101737.69;;;19.98;91.39
11440;BME280;5776;51.814;4.510;2023-07-13T10:43:46;101740.25;;;20.03;91.43
11440;BME280;5776;51.814;4.510;2023-07-13T10:46:18;101748.22;;;20.05;90.34
11440;BME280;5776;51.814;4.510;2023-07-13T10:48:48;101746.06;;;20.11;89.84
11440;BME280;5776;51.814;4.510;2023-07-13T10:51:17;101742.19;;;20.12;90.13
11440;BME280;5776;51.814;4.510;2023-07-13T10:53:47;101737.13;;;20.14;89.46
11440;BME280;5776;51.814;4.510;2023-07-13T10:56:21;101744.75;;;20.17;90.05
11440;BME280;5776;51.814;4.510;2023-07-13T10:59:01;101740.84;;;20.18;90.17
11440;BME280;5776;51.814;4.510;2023-07-13T11:01:39;101747.97;;;20.19;90.88
11440;BME280;5776;51.814;4.510;2023-07-13T11:04:11;101739.38;;;20.20;89.50
11440;BME280;5776;51.814;4.510;2023-07-13T11:06:40;101744.91;;;20.20;89.98
11440;BME280;5776;51.814;4.510;2023-07-13T11:09:32;101748.94;;;20.23;90.68
11440;BME280;5776;51.814;4.510;2023-07-13T11:12:00;101754.31;;;20.19;89.90
11440;BME280;5776;51.814;4.510;2023-07-13T11:14:38;101755.13;;;20.20;90.57
11440;BME280;5776;51.814;4.510;2023-07-13T11:22:53;101747.19;;;20.18;91.46
11440;BME280;5776;51.814;4.510;2023-07-13T11:25:34;101747.97;;;20.19;91.31
11440;BME280;5776;51.814;4.510;2023-07-13T11:30:39;101755.44;;;20.18;91.46
11440;BME280;5776;51.814;4.510;2023-07-13T11:33:23;101753.50;;;20.19;91.17
11440;BME280;5776;51.814;4.510;2023-07-13T11:35:57;101747.53;;;20.17;91.85
11440;BME280;5776;51.814;4.510;2023-07-13T11:38:38;101749.94;;;20.18;91.41
11440;BME280;5776;51.814;4.510;2023-07-13T11:41:10;101752.69;;;20.18;92.05
11440;BME280;5776;51.814;4.510;2023-07-13T11:43:40;101752.69;;;20.18;92.01
11440;BME280;5776;51.814;4.510;2023-07-13T11:46:20;101752.03;;;20.21;92.45
11440;BME280;5776;51.814;4.510;2023-07-13T11:48:46;101753.97;;;20.21;91.89
11440;BME280;5776;51.814;4.510;2023-07-13T11:51:23;101747.66;;;20.20;90.85
11440;BME280;5776;51.814;4.510;2023-07-13T11:53:53;101756.72;;;20.21;90.61
11440;BME280;5776;51.814;4.510;2023-07-13T11:56:20;101758.69;;;20.20;91.09
11440;BME280;5776;51.814;4.510;2023-07-13T11:58:50;101755.13;;;20.20;90.64
11440;BME280;5776;51.814;4.510;2023-07-13T12:01:23;101767.13;;;20.24;91.01
11440;BME280;5776;51.814;4.510;2023-07-13T12:03:50;101754.63;;;20.26;91.18
11440;BME280;5776;51.814;4.510;2023-07-13T12:06:27;101759.78;;;20.28;91.52
11440;BME280;5776;51.814;4.510;2023-07-13T12:09:01;101758.66;;;20.29;90.66
11440;BME280;5776;51.814;4.510;2023-07-13T12:11:29;101760.28;;;20.30;90.24
11440;BME280;5776;51.814;4.510;2023-07-13T12:13:55;101766.75;;;20.34;89.66
11440;BME280;5776;51.814;4.510;2023-07-13T12:16:32;101762.16;;;20.38;90.50
11440;BME280;5776;51.814;4.510;2023-07-13T12:18:59;101761.38;;;20.38;90.31
11440;BME280;5776;51.814;4.510;2023-07-13T12:21:34;101769.31;;;20.39;90.03
11440;BME280;5776;51.814;4.510;2023-07-13T12:24:00;101760.38;;;20.42;89.98
11440;BME280;5776;51.814;4.510;2023-07-13T12:26:30;101761.50;;;20.41;89.65
11440;BME280;5776;51.814;4.510;2023-07-13T12:29:00;101755.97;;;20.41;88.75
11440;BME280;5776;51.814;4.510;2023-07-13T12:31:47;101769.13;;;20.44;88.74
11440;BME280;5776;51.814;4.510;2023-07-13T12:34:16;101764.06;;;20.46;88.58
11440;BME280;5776;51.814;4.510;2023-07-13T12:36:54;101759.03;;;20.48;88.87
11440;BME280;5776;51.814;4.510;2023-07-13T12:39:32;101760.66;;;20.49;89.27
11440;BME280;5776;51.814;4.510;2023-07-13T12:44:41;101756.06;;;20.54;88.99
11440;BME280;5776;51.814;4.510;2023-07-13T12:47:12;101766.03;;;20.55;87.04
11440;BME280;5776;51.814;4.510;2023-07-13T12:49:42;101766.50;;;20.57;88.85
11440;BME280;5776;51.814;4.510;2023-07-13T12:52:23;101757.88;;;20.58;88.60
11440;BME280;5776;51.814;4.510;2023-07-13T12:55:06;101754.78;;;20.60;88.32
11440;BME280;5776;51.814;4.510;2023-07-13T12:57:56;101750.88;;;20.61;88.41
11440;BME280;5776;51.814;4.510;2023-07-13T13:02:56;101764.16;;;20.67;88.60
11440;BME280;5776;51.814;4.510;2023-07-13T13:05:26;101770.47;;;20.68;88.60
11440;BME280;5776;51.814;4.510;2023-07-13T13:07:52;101770.47;;;20.68;88.11
11440;BME280;5776;51.814;4.510;2023-07-13T13:10:18;101769.81;;;20.71;88.64
11440;BME280;5776;51.814;4.510;2023-07-13T13:12:44;101769.16;;;20.74;87.72
11440;BME280;5776;51.814;4.510;2023-07-13T13:15:10;101783.88;;;20.78;88.99
11440;BME280;5776;51.814;4.510;2023-07-13T13:17:37;101780.31;;;20.78;88.65
11440;BME280;5776;51.814;4.510;2023-07-13T13:20:18;101778.84;;;20.80;88.33
11440;BME280;5776;51.814;4.510;2023-07-13T13:22:45;101784.84;;;20.82;87.80
11440;BME280;5776;51.814;4.510;2023-07-13T13:25:12;101777.03;;;20.84;87.48
11440;BME280;5776;51.814;4.510;2023-07-13T13:27:43;101778.66;;;20.85;87.42